createdAt,value
2024-02-02T00:04:19.118Z,100.00
2024-02-02T00:09:23.006Z,100.00
2024-02-02T00:14:26.534Z,100.00
2024-02-02T00:19:30.116Z,100.00
2024-02-02T00:24:33.705Z,100.00
2024-02-02T00:29:37.682Z,100.00
2024-02-02T00:34:41.823Z,100.00
2024-02-02T00:39:46.070Z,100.00
2024-02-02T00:44:49.701Z,100.00
2024-02-02T00:49:53.131Z,100.00
2024-02-02T00:54:56.565Z,100.00
2024-02-02T01:00:00.173Z,100.00
2024-02-02T01:05:05.734Z,100.00
2024-02-02T01:10:13.594Z,100.00
2024-02-02T01:15:17.875Z,100.00
2024-02-02T01:20:21.732Z,100.00
2024-02-02T01:25:25.117Z,100.00
2024-02-02T01:30:31.096Z,100.00
2024-02-02T01:35:34.510Z,100.00
2024-02-02T01:40:37.968Z,100.00
2024-02-02T01:45:41.356Z,100.00
2024-02-02T01:50:44.665Z,100.00
2024-02-02T01:55:48.203Z,100.00
2024-02-02T02:00:51.905Z,100.00
2024-02-02T02:05:56.099Z,100.00
2024-02-02T02:11:00.210Z,100.00
2024-02-02T02:16:03.766Z,99.45
2024-02-02T02:21:27.880Z,98.62
2024-02-02T02:26:31.834Z,98.40
2024-02-02T02:31:35.439Z,98.32
2024-02-02T02:36:38.857Z,97.51
2024-02-02T02:41:42.473Z,97.25
2024-02-02T02:46:45.967Z,97.09
2024-02-02T02:51:50.405Z,97.82
2024-02-02T02:56:53.799Z,98.02
2024-02-02T03:01:58.066Z,98.29
2024-02-02T03:07:02.917Z,100.00
2024-02-02T03:12:06.713Z,100.00
2024-02-02T03:17:10.209Z,100.00
2024-02-02T03:22:14.038Z,100.00
2024-02-02T03:27:17.444Z,99.72
2024-02-02T03:32:21.042Z,97.60
2024-02-02T03:37:24.453Z,95.91
2024-02-02T03:42:28.174Z,94.79
2024-02-02T03:47:31.610Z,92.72
2024-02-02T03:52:35.548Z,91.44
2024-02-02T03:57:38.924Z,90.89
2024-02-02T04:02:46.615Z,90.67
2024-02-02T04:07:50.159Z,91.14
2024-02-02T04:12:54.082Z,90.79
2024-02-02T04:17:57.627Z,90.64
2024-02-02T04:23:01.075Z,90.83
2024-02-02T04:28:06.495Z,90.93
2024-02-02T04:33:10.093Z,91.35
2024-02-02T04:38:13.720Z,91.59
2024-02-02T04:43:17.312Z,92.24
2024-02-02T04:48:20.856Z,93.06
2024-02-02T04:53:24.323Z,93.36
2024-02-02T04:58:27.809Z,93.77
2024-02-02T05:03:33.204Z,94.00
2024-02-02T05:08:36.797Z,94.11
2024-02-02T05:13:40.325Z,93.99
2024-02-02T05:18:44.297Z,93.37
2024-02-02T05:23:49.811Z,93.71
2024-02-02T05:28:54.838Z,94.79
2024-02-02T05:33:58.360Z,95.71
2024-02-02T05:39:01.900Z,96.61
2024-02-02T05:44:05.352Z,97.63
2024-02-02T05:49:08.898Z,98.44
2024-02-02T05:54:12.517Z,99.60
2024-02-02T05:59:15.962Z,100.00
2024-02-02T06:04:19.605Z,100.00
2024-02-02T06:09:23.113Z,100.00
2024-02-02T06:14:28.891Z,100.00
2024-02-02T06:19:32.552Z,100.00
2024-02-02T06:24:36.144Z,100.00
2024-02-02T06:29:39.640Z,100.00
2024-02-02T06:34:43.070Z,100.00
2024-02-02T06:39:48.936Z,100.00
2024-02-02T06:44:52.975Z,100.00
2024-02-02T06:49:56.417Z,100.00
2024-02-02T06:55:00.354Z,100.00
2024-02-02T07:00:05.136Z,100.00
2024-02-02T07:05:09.059Z,100.00
2024-02-02T07:10:17.101Z,100.00
2024-02-02T07:15:27.131Z,100.00
2024-02-02T07:20:31.033Z,97.87
2024-02-02T07:25:41.757Z,91.01
2024-02-02T07:30:45.313Z,86.72
2024-02-02T07:35:48.908Z,83.92
2024-02-02T07:41:24.418Z,80.19
2024-02-02T07:46:28.399Z,80.28
2024-02-02T07:51:31.865Z,80.43
2024-02-02T07:56:35.254Z,78.90
2024-02-02T08:01:38.711Z,77.45
2024-02-02T08:06:43.414Z,77.47
2024-02-02T08:11:46.940Z,79.36
2024-02-02T08:16:50.626Z,76.45
2024-02-02T08:21:57.077Z,73.48
2024-02-02T08:27:00.562Z,75.26
2024-02-02T08:32:06.387Z,77.36
2024-02-02T08:37:09.888Z,78.87
2024-02-02T08:42:22.921Z,80.45
2024-02-02T08:47:30.346Z,82.13
2024-02-02T08:52:37.010Z,82.38
2024-02-02T08:58:28.947Z,82.70
2024-02-02T09:03:45.980Z,82.48
2024-02-02T09:08:51.249Z,81.65
2024-02-02T09:14:09.948Z,80.92
2024-02-02T09:19:29.123Z,81.05
2024-02-02T09:24:50.325Z,80.80
2024-02-02T09:29:54.748Z,80.96
2024-02-02T09:35:02.505Z,80.78
2024-02-02T09:40:37.020Z,81.01
2024-02-02T09:45:58.871Z,80.50
2024-02-02T09:51:34.499Z,79.76
2024-02-02T09:57:01.051Z,79.16
2024-02-02T10:02:44.963Z,78.50
2024-02-02T10:08:37.009Z,78.25
2024-02-02T10:14:01.983Z,77.69
2024-02-02T10:19:58.016Z,76.63
2024-02-02T10:25:52.681Z,76.01
2024-02-02T10:31:24.035Z,75.87
2024-02-02T10:36:56.432Z,73.28
2024-02-02T10:42:44.111Z,71.58
2024-02-02T10:48:16.645Z,70.26
2024-02-02T10:54:13.228Z,68.39
2024-02-02T10:59:33.973Z,67.27
2024-02-02T11:04:53.258Z,64.78
2024-02-02T11:10:06.670Z,62.23
2024-02-02T11:15:40.504Z,62.14
2024-02-02T11:21:34.675Z,59.69
2024-02-02T11:27:04.381Z,60.44
2024-02-02T11:32:52.060Z,60.14
2024-02-02T11:38:41.015Z,58.75
2024-02-02T11:43:46.580Z,59.17
2024-02-02T11:49:07.066Z,58.86
2024-02-02T11:54:28.002Z,60.64
2024-02-02T11:59:39.851Z,61.51
2024-02-02T12:05:10.184Z,63.29
2024-02-02T12:10:20.078Z,64.47
2024-02-02T12:15:24.272Z,64.47
2024-02-02T12:20:30.626Z,64.24
2024-02-02T12:25:34.846Z,64.71
2024-02-02T12:30:38.578Z,65.71
2024-02-02T12:35:42.827Z,64.49
2024-02-02T12:40:46.377Z,65.30
2024-02-02T12:45:49.850Z,65.55
2024-02-02T12:50:53.692Z,64.68
2024-02-02T12:55:57.166Z,64.08
2024-02-02T13:01:01.178Z,64.35
2024-02-02T13:06:05.810Z,65.02
2024-02-02T13:11:27.616Z,65.31
2024-02-02T13:16:34.694Z,66.05
2024-02-02T13:21:43.841Z,65.88
2024-02-02T13:26:52.333Z,67.10
2024-02-02T13:31:56.176Z,67.28
2024-02-02T13:37:00.966Z,67.18
2024-02-02T13:42:06.275Z,68.01
2024-02-02T13:47:15.208Z,68.57
2024-02-02T13:52:18.636Z,69.27
2024-02-02T13:57:23.109Z,69.64
2024-02-02T14:02:27.670Z,70.02
2024-02-02T14:07:31.274Z,70.18
2024-02-02T14:12:38.500Z,70.17
2024-02-02T14:17:42.235Z,70.31
2024-02-02T14:22:46.163Z,70.56
2024-02-02T14:27:49.437Z,70.64
2024-02-02T14:33:04.858Z,70.81
2024-02-02T14:38:16.845Z,71.19
2024-02-02T14:43:20.202Z,70.72
2024-02-02T14:48:23.720Z,70.84
2024-02-02T14:53:27.026Z,71.70
2024-02-02T14:58:30.353Z,73.62
2024-02-02T15:03:33.803Z,74.75
2024-02-02T15:08:39.158Z,75.58
2024-02-02T15:13:42.835Z,76.35
2024-02-02T15:18:47.830Z,76.92
2024-02-02T15:23:51.237Z,76.85
2024-02-02T15:28:54.736Z,75.38
2024-02-02T15:33:58.490Z,75.56
2024-02-02T15:39:18.156Z,75.68
2024-02-02T15:44:26.316Z,75.86
2024-02-02T15:49:30.052Z,76.38
2024-02-02T15:54:35.539Z,76.98
2024-02-02T15:59:40.205Z,77.76
2024-02-02T16:04:43.844Z,78.39
2024-02-02T16:09:47.847Z,79.35
2024-02-02T16:14:51.642Z,79.36
2024-02-02T16:19:56.638Z,79.82
2024-02-02T16:25:00.367Z,80.44
2024-02-02T16:30:05.568Z,80.92
2024-02-02T16:35:09.525Z,81.54
2024-02-02T16:40:14.168Z,82.25
2024-02-02T16:45:18.233Z,82.96
2024-02-02T16:50:22.346Z,82.95
2024-02-02T16:55:25.907Z,83.16
2024-02-02T17:00:30.850Z,83.60
2024-02-02T17:05:34.801Z,83.65
2024-02-02T17:10:38.503Z,83.98
2024-02-02T17:15:42.526Z,83.91
2024-02-02T17:20:46.524Z,84.08
2024-02-02T17:25:50.458Z,84.13
2024-02-02T17:30:55.379Z,83.82
2024-02-02T17:35:59.647Z,83.59
2024-02-02T17:41:04.131Z,83.38
2024-02-02T17:46:09.360Z,83.29
2024-02-02T17:51:21.230Z,83.48
2024-02-02T17:56:25.092Z,83.94
2024-02-02T18:01:28.992Z,84.53
2024-02-02T18:06:33.559Z,86.16
2024-02-02T18:11:37.514Z,85.97
2024-02-02T18:16:40.909Z,86.61
2024-02-02T18:21:44.474Z,86.10
2024-02-02T18:26:47.987Z,85.97
2024-02-02T18:31:51.638Z,85.43
2024-02-02T18:36:55.106Z,85.69
2024-02-02T18:42:05.164Z,85.71
2024-02-02T18:47:08.674Z,85.65
2024-02-02T18:52:13.112Z,85.55
2024-02-02T18:57:18.102Z,85.64
2024-02-02T19:02:21.437Z,85.71
2024-02-02T19:07:26.767Z,85.80
2024-02-02T19:12:30.327Z,85.81
2024-02-02T19:17:33.769Z,86.06
2024-02-02T19:22:37.626Z,86.21
2024-02-02T19:27:41.044Z,86.49
2024-02-02T19:32:44.529Z,85.10
2024-02-02T19:37:47.940Z,84.69
2024-02-02T19:42:51.530Z,83.76
2024-02-02T19:47:56.462Z,82.42
2024-02-02T19:52:59.980Z,81.90
2024-02-02T19:58:03.350Z,81.75
2024-02-02T20:03:06.708Z,81.85
2024-02-02T20:08:10.111Z,82.22
2024-02-02T20:13:13.435Z,82.24
2024-02-02T20:18:17.874Z,82.61
2024-02-02T20:23:21.965Z,83.29
2024-02-02T20:28:25.217Z,83.43
2024-02-02T20:33:29.009Z,84.10
2024-02-02T20:38:32.551Z,84.70
2024-02-02T20:43:36.030Z,85.63
2024-02-02T20:48:39.608Z,85.65
2024-02-02T20:53:43.188Z,84.96
2024-02-02T20:58:47.014Z,84.61
2024-02-02T21:03:50.513Z,84.31
2024-02-02T21:08:55.285Z,83.76
2024-02-02T21:13:58.693Z,83.67
2024-02-02T21:19:05.864Z,83.14
2024-02-02T21:24:09.481Z,83.50
2024-02-02T21:29:13.300Z,83.24
2024-02-02T21:34:17.042Z,85.08
2024-02-02T21:39:20.317Z,85.64
2024-02-02T21:44:24.800Z,86.27
2024-02-02T21:49:28.592Z,87.14
2024-02-02T21:54:32.194Z,87.36
2024-02-02T21:59:39.176Z,87.82
2024-02-02T22:04:43.192Z,88.12
2024-02-02T22:09:47.006Z,88.68
2024-02-02T22:14:50.267Z,88.94
2024-02-02T22:19:54.033Z,89.58
2024-02-02T22:24:57.574Z,90.26
2024-02-02T22:30:00.933Z,91.26
2024-02-02T22:35:05.140Z,91.35
2024-02-02T22:40:09.936Z,92.57
2024-02-02T22:45:13.633Z,93.29
2024-02-02T22:50:17.496Z,94.57
2024-02-02T22:55:21.090Z,95.15
2024-02-02T23:00:24.590Z,95.64
2024-02-02T23:05:28.277Z,96.01
2024-02-02T23:10:31.731Z,96.56
2024-02-02T23:15:36.722Z,97.80
2024-02-02T23:20:40.304Z,99.14
2024-02-02T23:25:44.969Z,99.18
2024-02-02T23:30:49.637Z,99.47
2024-02-02T23:35:53.404Z,99.34
2024-02-02T23:40:57.148Z,99.87
2024-02-02T23:46:00.782Z,99.56
2024-02-02T23:51:07.775Z,100.00
2024-02-02T23:56:11.294Z,99.33
